createdAt,value
2018-03-21T00:00:58.024Z,9.70
2018-03-21T00:01:58.024Z,7.00
2018-03-21T00:02:58.005Z,7.70
2018-03-21T00:03:58.012Z,10.90
2018-03-21T00:04:58.009Z,8.60
2018-03-21T00:05:58.633Z,7.20
2018-03-21T00:06:58.003Z,7.00
2018-03-21T00:07:58.002Z,9.30
2018-03-21T00:08:58.004Z,9.40
2018-03-21T00:09:57.990Z,8.40
2018-03-21T00:10:57.990Z,8.50
2018-03-21T00:11:58.009Z,9.60
2018-03-21T00:12:58.008Z,8.80
2018-03-21T00:13:58.002Z,7.90
2018-03-21T00:14:57.996Z,6.80
2018-03-21T00:15:57.987Z,8.00
2018-03-21T00:16:57.974Z,7.10
2018-03-21T00:17:57.982Z,7.30
2018-03-21T00:18:57.982Z,10.60
2018-03-21T00:19:57.985Z,7.60
2018-03-21T00:20:57.957Z,7.70
2018-03-21T00:21:57.958Z,6.80
2018-03-21T00:22:57.956Z,8.50
2018-03-21T00:23:57.949Z,8.30
2018-03-21T00:24:57.948Z,10.20
2018-03-21T00:25:57.946Z,6.50
2018-03-21T00:26:57.952Z,8.40
2018-03-21T00:27:57.947Z,9.50
2018-03-21T00:28:57.940Z,8.00
2018-03-21T00:29:57.941Z,5.70
2018-03-21T00:30:57.937Z,8.40
2018-03-21T00:31:57.919Z,8.90
2018-03-21T00:32:57.917Z,9.50
2018-03-21T00:33:57.935Z,8.30
2018-03-21T00:34:57.925Z,11.80
2018-03-21T00:35:57.914Z,10.10
2018-03-21T00:36:57.914Z,8.30
2018-03-21T00:37:57.921Z,8.10
2018-03-21T00:38:57.906Z,6.50
2018-03-21T00:39:57.976Z,9.80
2018-03-21T00:40:57.905Z,8.20
2018-03-21T00:41:57.917Z,9.60
2018-03-21T00:42:57.902Z,8.00
2018-03-21T00:43:57.895Z,11.20
2018-03-21T00:44:57.902Z,9.40
2018-03-21T00:45:57.890Z,6.90
2018-03-21T00:46:57.893Z,8.80
2018-03-21T00:47:57.882Z,6.70
2018-03-21T00:48:57.886Z,5.10
2018-03-21T00:49:57.876Z,8.70
2018-03-21T00:50:57.879Z,8.90
2018-03-21T00:51:57.869Z,7.80
2018-03-21T00:52:57.918Z,8.40
2018-03-21T00:53:57.866Z,11.50
2018-03-21T00:54:57.857Z,11.60
2018-03-21T00:55:57.861Z,7.40
2018-03-21T00:56:57.848Z,6.30
2018-03-21T00:57:57.844Z,8.40
2018-03-21T00:58:57.857Z,6.20
2018-03-21T00:59:57.848Z,8.60
2018-03-21T01:00:57.846Z,8.30
2018-03-21T01:01:57.851Z,10.30
2018-03-21T01:02:57.846Z,8.10
2018-03-21T01:03:57.849Z,7.40
2018-03-21T01:04:57.841Z,8.90
2018-03-21T01:05:57.838Z,9.00
2018-03-21T01:06:57.826Z,10.00
2018-03-21T01:07:57.824Z,7.80
2018-03-21T01:08:57.812Z,7.50
2018-03-21T01:09:57.821Z,7.50
2018-03-21T01:10:58.644Z,7.60
2018-03-21T01:11:57.811Z,9.50
2018-03-21T01:12:57.808Z,12.40
2018-03-21T01:13:57.818Z,9.60
2018-03-21T01:14:57.804Z,8.60
2018-03-21T01:15:57.808Z,6.40
2018-03-21T01:16:57.801Z,6.70
2018-03-21T01:17:57.798Z,10.90
2018-03-21T01:18:57.797Z,8.00
2018-03-21T01:19:57.784Z,11.40
2018-03-21T01:20:57.804Z,10.30
2018-03-21T01:21:57.784Z,10.40
2018-03-21T01:22:57.779Z,10.00
2018-03-21T01:23:57.779Z,10.60
2018-03-21T01:24:57.776Z,9.60
2018-03-21T01:25:57.791Z,8.70
2018-03-21T01:26:57.770Z,8.40
2018-03-21T01:27:57.763Z,9.70
2018-03-21T01:28:57.762Z,9.40
2018-03-21T01:29:57.765Z,8.80
2018-03-21T01:30:57.749Z,7.50
2018-03-21T01:31:57.752Z,8.30
2018-03-21T01:32:57.744Z,8.80
2018-03-21T01:33:57.751Z,10.20
2018-03-21T01:34:57.755Z,8.10
2018-03-21T01:35:57.740Z,9.10
2018-03-21T01:36:57.733Z,9.60
2018-03-21T01:37:57.725Z,7.80
2018-03-21T01:38:57.739Z,8.20
2018-03-21T01:39:57.771Z,10.90
2018-03-21T01:40:57.742Z,10.10
2018-03-21T01:41:57.718Z,7.90
2018-03-21T01:42:57.720Z,10.20
2018-03-21T01:43:57.719Z,7.60
2018-03-21T01:44:57.714Z,10.50
2018-03-21T01:45:57.718Z,11.80
2018-03-21T01:46:57.717Z,9.50
2018-03-21T01:47:57.707Z,15.60
2018-03-21T01:48:57.705Z,6.50
2018-03-21T01:49:57.699Z,11.70
2018-03-21T01:50:57.685Z,8.80
2018-03-21T01:51:57.692Z,10.20
2018-03-21T01:52:57.700Z,11.10
2018-03-21T01:53:57.683Z,9.60
2018-03-21T01:54:57.700Z,9.60
2018-03-21T01:55:57.684Z,9.10
2018-03-21T01:56:57.675Z,9.90
2018-03-21T01:57:57.689Z,10.20
2018-03-21T01:58:57.680Z,9.20
2018-03-21T01:59:57.680Z,7.80
2018-03-21T02:00:57.660Z,7.80
2018-03-21T02:01:57.664Z,12.60
2018-03-21T02:02:57.653Z,8.40
2018-03-21T02:03:57.677Z,8.80
2018-03-21T02:04:57.658Z,9.00
2018-03-21T02:05:57.674Z,9.60
2018-03-21T02:06:57.641Z,10.60
2018-03-21T02:07:57.646Z,8.60
2018-03-21T02:08:57.641Z,7.50
2018-03-21T02:09:57.643Z,8.60
2018-03-21T02:10:58.145Z,10.60
2018-03-21T02:11:57.632Z,10.50
2018-03-21T02:12:57.627Z,9.90
2018-03-21T02:13:57.620Z,11.20
2018-03-21T02:14:57.620Z,10.30
2018-03-21T02:15:57.623Z,8.00
2018-03-21T02:16:57.618Z,8.30
2018-03-21T02:17:57.621Z,6.50
2018-03-21T02:18:57.641Z,8.00
2018-03-21T02:19:57.613Z,8.30
2018-03-21T02:20:57.605Z,11.50
2018-03-21T02:21:57.603Z,9.40
2018-03-21T02:22:57.599Z,10.60
2018-03-21T02:23:57.596Z,9.70
2018-03-21T02:24:57.590Z,11.70
2018-03-21T02:25:57.599Z,9.00
2018-03-21T02:26:57.651Z,7.90
2018-03-21T02:27:57.608Z,6.80
2018-03-21T02:28:57.582Z,12.30
2018-03-21T02:29:57.565Z,9.70
2018-03-21T02:30:57.565Z,9.80
2018-03-21T02:31:57.561Z,11.00
2018-03-21T02:32:57.569Z,10.10
2018-03-21T02:33:57.559Z,8.40
2018-03-21T02:34:57.559Z,8.20
2018-03-21T02:35:57.556Z,8.20
2018-03-21T02:36:57.555Z,6.10
2018-03-21T02:37:57.545Z,8.10
2018-03-21T02:38:57.558Z,9.20
2018-03-21T02:39:57.626Z,11.80
2018-03-21T02:40:57.544Z,11.40
2018-03-21T02:41:57.543Z,8.30
2018-03-21T02:42:57.531Z,10.10
2018-03-21T02:43:57.529Z,8.00
2018-03-21T02:44:57.518Z,9.10
2018-03-21T02:45:57.522Z,11.80
2018-03-21T02:46:57.520Z,8.70
2018-03-21T02:47:57.508Z,11.00
2018-03-21T02:48:57.512Z,11.40
2018-03-21T02:49:57.512Z,10.50
2018-03-21T02:50:57.511Z,11.40
2018-03-21T02:51:57.510Z,12.80
2018-03-21T02:52:57.485Z,9.10
2018-03-21T02:53:57.495Z,8.90
2018-03-21T02:54:57.495Z,8.80
2018-03-21T02:55:57.488Z,8.30
2018-03-21T02:56:57.502Z,10.30
2018-03-21T02:57:57.518Z,13.10
2018-03-21T02:58:57.481Z,9.10
2018-03-21T02:59:57.490Z,9.90
2018-03-21T03:00:57.472Z,7.80
2018-03-21T03:01:57.471Z,10.10
2018-03-21T03:02:57.468Z,8.40
2018-03-21T03:03:57.530Z,11.60
2018-03-21T03:04:57.457Z,11.90
2018-03-21T03:05:57.459Z,11.70
2018-03-21T03:06:57.454Z,9.60
2018-03-21T03:07:57.449Z,8.90
2018-03-21T03:08:57.448Z,8.80
2018-03-21T03:09:57.445Z,10.80
2018-03-21T03:10:57.429Z,7.70
2018-03-21T03:11:57.447Z,9.90
2018-03-21T03:12:57.435Z,9.80
2018-03-21T03:13:57.427Z,10.10
2018-03-21T03:14:57.423Z,10.60
2018-03-21T03:15:57.417Z,10.60
2018-03-21T03:16:57.429Z,8.70
2018-03-21T03:17:57.424Z,9.50
2018-03-21T03:18:57.418Z,11.80
2018-03-21T03:19:57.418Z,11.70
2018-03-21T03:20:57.416Z,12.70
2018-03-21T03:21:57.405Z,12.30
2018-03-21T03:22:57.404Z,9.30
2018-03-21T03:23:57.409Z,11.80
2018-03-21T03:24:57.386Z,8.40
2018-03-21T03:25:57.388Z,9.50
2018-03-21T03:26:57.422Z,10.80
2018-03-21T03:27:57.391Z,13.90
2018-03-21T03:28:57.392Z,12.00
2018-03-21T03:29:57.375Z,8.90
2018-03-21T03:30:57.372Z,9.70
2018-03-21T03:31:58.150Z,11.10
2018-03-21T03:32:57.377Z,11.20
2018-03-21T03:33:57.366Z,11.20
2018-03-21T03:34:57.352Z,11.30
2018-03-21T03:35:57.357Z,9.20
2018-03-21T03:36:57.364Z,11.80
2018-03-21T03:37:57.362Z,11.40
2018-03-21T03:38:57.355Z,11.20
2018-03-21T03:39:57.346Z,11.10
2018-03-21T03:40:57.348Z,9.60
2018-03-21T03:41:57.338Z,11.20
2018-03-21T03:42:57.340Z,13.20
2018-03-21T03:43:57.323Z,11.70
2018-03-21T03:44:57.323Z,11.00
2018-03-21T03:45:57.326Z,14.30
2018-03-21T03:46:57.319Z,11.70
2018-03-21T03:47:57.328Z,9.20
2018-03-21T03:48:57.315Z,8.50
2018-03-21T03:49:57.312Z,10.80
2018-03-21T03:50:57.312Z,13.10
2018-03-21T03:51:57.306Z,10.50
2018-03-21T03:52:57.284Z,10.40
2018-03-21T03:53:57.298Z,10.10
2018-03-21T03:54:57.298Z,9.80
2018-03-21T03:55:57.291Z,13.30
2018-03-21T03:56:57.288Z,11.90
2018-03-21T03:57:57.268Z,9.30
2018-03-21T03:58:57.282Z,10.50
2018-03-21T03:59:57.278Z,10.00
2018-03-21T04:00:57.372Z,13.60
2018-03-21T04:01:57.275Z,11.10
2018-03-21T04:02:57.278Z,14.00
2018-03-21T04:03:57.259Z,17.90
2018-03-21T04:04:57.251Z,15.90
2018-03-21T04:05:57.259Z,10.10
2018-03-21T04:06:57.253Z,12.60
2018-03-21T04:07:57.249Z,11.90
2018-03-21T04:08:57.244Z,11.80
2018-03-21T04:09:57.250Z,15.20
2018-03-21T04:10:57.236Z,12.80
2018-03-21T04:11:57.248Z,13.20
2018-03-21T04:12:57.227Z,18.10
2018-03-21T04:13:57.252Z,15.10
2018-03-21T04:14:57.226Z,12.70
2018-03-21T04:15:57.223Z,12.40
2018-03-21T04:16:57.221Z,16.10
2018-03-21T04:17:57.223Z,11.10
2018-03-21T04:18:57.212Z,12.90
2018-03-21T04:19:57.222Z,13.00
2018-03-21T04:20:57.200Z,13.50
2018-03-21T04:21:57.204Z,11.70
2018-03-21T04:22:57.209Z,14.40
2018-03-21T04:23:57.195Z,12.80
2018-03-21T04:24:57.189Z,15.20
2018-03-21T04:25:57.195Z,12.80
2018-03-21T04:26:57.189Z,16.10
2018-03-21T04:27:57.201Z,14.60
2018-03-21T04:28:57.176Z,15.20
2018-03-21T04:29:57.175Z,12.70
2018-03-21T04:30:57.171Z,17.00
2018-03-21T04:31:57.662Z,20.80
2018-03-21T04:32:57.154Z,16.20
2018-03-21T04:33:57.159Z,10.60
2018-03-21T04:34:57.161Z,16.60
2018-03-21T04:35:57.144Z,12.80
2018-03-21T04:36:57.163Z,13.60
2018-03-21T04:37:57.150Z,12.80
2018-03-21T04:38:57.144Z,16.60
2018-03-21T04:39:57.152Z,14.10
2018-03-21T04:40:57.160Z,13.80
2018-03-21T04:41:57.131Z,15.60
2018-03-21T04:42:57.133Z,17.10
2018-03-21T04:43:57.130Z,14.70
2018-03-21T04:44:57.111Z,16.20
2018-03-21T04:45:57.115Z,13.10
2018-03-21T04:46:57.116Z,13.60
2018-03-21T04:47:57.654Z,14.60
2018-03-21T04:48:57.115Z,15.30
2018-03-21T04:49:57.112Z,15.30
2018-03-21T04:50:57.104Z,15.70
2018-03-21T04:51:57.106Z,12.10
2018-03-21T04:52:57.099Z,16.50
2018-03-21T04:53:57.080Z,17.10
2018-03-21T04:54:57.096Z,12.60
2018-03-21T04:55:57.092Z,14.60
2018-03-21T04:56:57.075Z,16.70
2018-03-21T04:57:57.092Z,12.20
2018-03-21T04:58:57.081Z,14.00
2018-03-21T04:59:57.064Z,18.40
2018-03-21T05:00:57.073Z,13.30
2018-03-21T05:01:57.097Z,14.90
2018-03-21T05:02:57.064Z,13.70
2018-03-21T05:03:57.057Z,14.70
2018-03-21T05:04:57.051Z,14.20
2018-03-21T05:05:57.050Z,14.20
2018-03-21T05:06:57.051Z,13.90
2018-03-21T05:07:57.054Z,14.10
2018-03-21T05:08:57.035Z,15.40
2018-03-21T05:09:57.037Z,17.40
2018-03-21T05:10:57.044Z,13.40
2018-03-21T05:11:57.040Z,15.90
2018-03-21T05:12:57.024Z,15.90
2018-03-21T05:13:57.130Z,16.70
2018-03-21T05:14:57.013Z,14.40
2018-03-21T05:15:57.015Z,11.60
2018-03-21T05:16:57.657Z,18.30
2018-03-21T05:17:57.006Z,11.80
2018-03-21T05:18:56.993Z,16.20
2018-03-21T05:19:56.999Z,16.90
2018-03-21T05:20:57.007Z,15.00
2018-03-21T05:21:57.046Z,16.20
2018-03-21T05:22:56.993Z,15.10
2018-03-21T05:23:56.977Z,12.00
2018-03-21T05:24:56.977Z,15.00
2018-03-21T05:25:56.973Z,18.20
2018-03-21T05:26:56.973Z,21.00
2018-03-21T05:27:56.977Z,18.10
2018-03-21T05:28:56.969Z,16.00
2018-03-21T05:29:56.954Z,17.60
2018-03-21T05:30:56.973Z,18.50
2018-03-21T05:31:56.966Z,20.30
2018-03-21T05:32:56.948Z,20.20
2018-03-21T05:33:56.941Z,16.60
2018-03-21T05:34:57.019Z,20.00
2018-03-21T05:35:56.949Z,19.60
2018-03-21T05:36:56.938Z,17.10
2018-03-21T05:37:56.932Z,20.90
2018-03-21T05:38:56.931Z,20.40
2018-03-21T05:39:56.925Z,19.40
2018-03-21T05:40:56.920Z,19.60
2018-03-21T05:41:56.931Z,18.50
2018-03-21T05:42:56.910Z,17.70
2018-03-21T05:43:56.919Z,20.60
2018-03-21T05:44:56.904Z,21.30
2018-03-21T05:45:56.909Z,21.90
2018-03-21T05:46:56.910Z,23.30
2018-03-21T05:47:56.958Z,18.80
2018-03-21T05:48:56.893Z,19.20
2018-03-21T05:49:56.888Z,21.20
2018-03-21T05:50:56.889Z,16.10
2018-03-21T05:51:56.884Z,18.80
2018-03-21T05:52:56.889Z,19.30
2018-03-21T05:53:56.879Z,20.90
2018-03-21T05:54:56.874Z,19.70
2018-03-21T05:55:56.874Z,20.80
2018-03-21T05:56:56.875Z,17.00
2018-03-21T05:57:56.857Z,20.10
2018-03-21T05:58:56.864Z,22.70
2018-03-21T05:59:56.853Z,21.30
2018-03-21T06:00:56.863Z,23.80
2018-03-21T06:01:56.852Z,18.70
2018-03-21T06:02:56.838Z,24.50
2018-03-21T06:03:56.842Z,24.30
2018-03-21T06:04:56.826Z,23.10
2018-03-21T06:05:56.839Z,21.00
2018-03-21T06:06:56.837Z,24.80
2018-03-21T06:07:56.816Z,28.60
2018-03-21T06:08:56.828Z,29.50
2018-03-21T06:09:56.824Z,28.00
2018-03-21T06:10:56.820Z,25.30
2018-03-21T06:11:56.808Z,26.80
2018-03-21T06:12:56.809Z,29.00
2018-03-21T06:13:56.806Z,23.90
2018-03-21T06:14:56.806Z,25.50
2018-03-21T06:15:56.801Z,23.90
2018-03-21T06:16:56.793Z,21.30
2018-03-21T06:17:56.798Z,22.40
2018-03-21T06:18:57.663Z,21.60
2018-03-21T06:19:56.792Z,23.90
2018-03-21T06:20:56.781Z,21.60
2018-03-21T06:21:57.663Z,26.20
2018-03-21T06:22:56.775Z,24.30
2018-03-21T06:23:56.769Z,22.80
2018-03-21T06:24:56.762Z,26.50
2018-03-21T06:25:56.758Z,28.80
2018-03-21T06:26:56.761Z,30.80
2018-03-21T06:27:56.758Z,28.70
2018-03-21T06:28:56.753Z,23.60
2018-03-21T06:29:56.749Z,24.60
2018-03-21T06:30:56.757Z,25.40
2018-03-21T06:31:57.664Z,24.40
2018-03-21T06:32:56.732Z,25.80
2018-03-21T06:33:56.749Z,29.70
2018-03-21T06:34:56.730Z,28.20
2018-03-21T06:35:56.749Z,26.80
2018-03-21T06:36:56.712Z,25.80
2018-03-21T06:37:56.747Z,24.80
2018-03-21T06:38:56.728Z,24.30
2018-03-21T06:39:56.719Z,24.90
2018-03-21T06:40:56.708Z,23.00
2018-03-21T06:41:56.704Z,22.60
2018-03-21T06:42:56.700Z,19.80
2018-03-21T06:43:56.690Z,21.10
2018-03-21T06:44:56.700Z,22.10
2018-03-21T06:45:56.699Z,21.80
2018-03-21T06:46:56.691Z,21.50
2018-03-21T06:47:56.682Z,21.80
2018-03-21T06:48:56.680Z,23.50
2018-03-21T06:49:56.692Z,21.30
2018-03-21T06:50:56.674Z,22.20
2018-03-21T06:51:56.671Z,19.30
2018-03-21T06:52:57.170Z,21.40
2018-03-21T06:53:56.672Z,22.00
2018-03-21T06:54:56.659Z,19.80
2018-03-21T06:55:56.668Z,20.60
2018-03-21T06:56:56.652Z,19.20
2018-03-21T06:57:56.681Z,23.50
2018-03-21T06:58:56.679Z,20.50
2018-03-21T06:59:56.652Z,23.70
2018-03-21T07:00:56.666Z,22.50
2018-03-21T07:01:56.628Z,20.40
2018-03-21T07:02:56.632Z,21.30
2018-03-21T07:03:56.625Z,22.30
2018-03-21T07:04:56.628Z,21.20
2018-03-21T07:05:56.617Z,22.70
2018-03-21T07:06:56.623Z,20.60
2018-03-21T07:07:56.617Z,23.20
2018-03-21T07:08:56.645Z,23.10
2018-03-21T07:09:56.615Z,22.50
2018-03-21T07:10:56.660Z,24.10
2018-03-21T07:11:56.632Z,25.10
2018-03-21T07:12:56.611Z,22.30
2018-03-21T07:13:56.599Z,26.90
2018-03-21T07:14:56.593Z,25.50
2018-03-21T07:15:56.709Z,21.40
2018-03-21T07:16:56.590Z,24.20
2018-03-21T07:17:56.581Z,24.90
2018-03-21T07:18:56.581Z,25.30
2018-03-21T07:19:56.585Z,24.30
2018-03-21T07:20:56.596Z,27.30
2018-03-21T07:21:56.572Z,20.90
2018-03-21T07:22:56.571Z,21.10
2018-03-21T07:23:56.561Z,20.40
2018-03-21T07:24:56.560Z,21.10
2018-03-21T07:25:56.562Z,21.60
2018-03-21T07:26:56.552Z,21.80
2018-03-21T07:27:56.545Z,22.30
2018-03-21T07:28:56.555Z,22.40
2018-03-21T07:29:56.561Z,22.70
2018-03-21T07:30:57.194Z,22.90
2018-03-21T07:31:56.539Z,26.00
2018-03-21T07:32:56.535Z,22.50
2018-03-21T07:33:57.212Z,25.70
2018-03-21T07:34:56.530Z,24.80
2018-03-21T07:35:56.527Z,26.20
2018-03-21T07:36:56.525Z,26.30
2018-03-21T07:37:56.529Z,25.30
2018-03-21T07:38:56.522Z,27.20
2018-03-21T07:39:56.542Z,25.80
2018-03-21T07:40:56.522Z,25.60
2018-03-21T07:41:56.692Z,28.50
2018-03-21T07:42:56.500Z,29.20
2018-03-21T07:43:56.505Z,30.50
2018-03-21T07:44:56.545Z,33.70
2018-03-21T07:45:56.498Z,26.50
2018-03-21T07:46:56.494Z,30.20
2018-03-21T07:47:56.497Z,27.60
2018-03-21T07:48:56.496Z,25.20
2018-03-21T07:49:56.503Z,30.80
2018-03-21T07:50:56.511Z,28.30
2018-03-21T07:51:56.488Z,28.90
2018-03-21T07:52:56.482Z,26.10
2018-03-21T07:53:56.484Z,25.80
2018-03-21T07:54:56.472Z,24.60
2018-03-21T07:55:56.473Z,27.90
2018-03-21T07:56:56.469Z,25.20
2018-03-21T07:57:56.491Z,28.30
2018-03-21T07:58:56.467Z,25.20
2018-03-21T07:59:56.469Z,26.00
2018-03-21T08:00:56.474Z,32.70
2018-03-21T08:01:56.456Z,32.40
2018-03-21T08:02:56.465Z,25.10
2018-03-21T08:03:56.469Z,27.30
2018-03-21T08:04:56.452Z,25.50
2018-03-21T08:05:56.438Z,26.20
2018-03-21T08:06:56.434Z,27.90
2018-03-21T08:07:56.461Z,28.80
2018-03-21T08:08:56.442Z,29.90
2018-03-21T08:09:56.538Z,32.00
2018-03-21T08:10:56.532Z,29.50
2018-03-21T08:11:56.447Z,34.00
2018-03-21T08:12:56.432Z,27.80
2018-03-21T08:13:56.459Z,30.30
2018-03-21T08:14:56.433Z,32.10
2018-03-21T08:15:56.456Z,33.10
2018-03-21T08:16:56.411Z,42.90
2018-03-21T08:17:56.409Z,30.00
2018-03-21T08:18:56.411Z,34.20
2018-03-21T08:19:56.410Z,28.00
2018-03-21T08:20:56.428Z,27.80
2018-03-21T08:21:56.502Z,24.90
2018-03-21T08:22:56.524Z,28.50
2018-03-21T08:23:56.406Z,23.90
2018-03-21T08:24:56.519Z,30.70
2018-03-21T08:25:56.415Z,29.20
2018-03-21T08:26:56.410Z,25.70
2018-03-21T08:27:56.404Z,26.70
2018-03-21T08:28:57.181Z,27.80
2018-03-21T08:29:56.383Z,29.30
2018-03-21T08:30:56.436Z,25.60
2018-03-21T08:31:56.391Z,29.40
2018-03-21T08:32:56.372Z,24.60
2018-03-21T08:33:56.378Z,27.00
2018-03-21T08:34:56.389Z,26.10
2018-03-21T08:35:56.388Z,27.20
2018-03-21T08:36:56.372Z,26.20
2018-03-21T08:37:56.380Z,25.70
2018-03-21T08:38:56.363Z,25.80
2018-03-21T08:39:56.803Z,24.40
2018-03-21T08:40:56.369Z,24.40
2018-03-21T08:41:56.448Z,28.70
2018-03-21T08:42:56.407Z,29.80
2018-03-21T08:43:56.379Z,29.30
2018-03-21T08:44:56.356Z,27.30
2018-03-21T08:45:56.367Z,25.60
2018-03-21T08:46:56.365Z,29.00
2018-03-21T08:47:56.365Z,28.30
2018-03-21T08:48:56.356Z,28.00
2018-03-21T08:49:56.366Z,28.20
2018-03-21T08:50:56.386Z,29.20
2018-03-21T08:51:56.350Z,28.70
2018-03-21T08:52:56.343Z,27.90
2018-03-21T08:53:56.345Z,26.40
2018-03-21T08:54:56.413Z,28.10
2018-03-21T08:55:56.360Z,27.20
2018-03-21T08:57:03.003Z,32.10
2018-03-21T08:57:56.340Z,30.60
2018-03-21T08:58:56.344Z,27.00
2018-03-21T08:59:57.260Z,26.10
2018-03-21T09:00:56.329Z,23.70
2018-03-21T09:01:56.326Z,25.60
2018-03-21T09:02:57.183Z,27.60
2018-03-21T09:03:56.341Z,26.50
2018-03-21T09:04:56.337Z,24.50
2018-03-21T09:05:56.350Z,29.60
2018-03-21T09:06:56.324Z,26.40
2018-03-21T09:07:56.358Z,27.80
2018-03-21T09:08:56.338Z,31.30
2018-03-21T09:09:56.330Z,25.40
2018-03-21T09:10:56.341Z,29.00
2018-03-21T09:11:56.323Z,26.40
2018-03-21T09:12:56.563Z,28.10
2018-03-21T09:13:56.323Z,28.60
2018-03-21T09:14:56.327Z,23.70
2018-03-21T09:15:57.189Z,25.10
2018-03-21T09:16:57.198Z,30.60
2018-03-21T09:17:56.335Z,25.10
2018-03-21T09:18:56.318Z,27.00
2018-03-21T09:19:56.308Z,25.50
2018-03-21T09:20:56.321Z,25.60
2018-03-21T09:21:56.347Z,23.00
2018-03-21T09:22:56.387Z,23.50
2018-03-21T09:23:56.308Z,31.10
2018-03-21T09:24:56.323Z,30.10
2018-03-21T09:25:56.321Z,20.40
2018-03-21T09:26:56.305Z,20.90
2018-03-21T09:27:56.312Z,21.80
2018-03-21T09:28:56.364Z,32.20
2018-03-21T09:29:56.341Z,27.80
2018-03-21T09:30:56.320Z,26.20
2018-03-21T09:31:56.498Z,20.10
2018-03-21T09:32:56.319Z,19.30
2018-03-21T09:33:56.311Z,19.10
2018-03-21T09:34:56.310Z,21.60
2018-03-21T09:35:56.310Z,21.00
2018-03-21T09:36:56.369Z,21.90
2018-03-21T09:37:56.358Z,17.30
2018-03-21T09:38:57.190Z,19.30
2018-03-21T09:39:57.223Z,17.20
2018-03-21T09:40:56.384Z,22.60
2018-03-21T09:41:56.379Z,22.30
2018-03-21T09:42:56.476Z,19.20
2018-03-21T09:43:56.664Z,23.70
2018-03-21T09:44:56.364Z,15.90
2018-03-21T09:45:56.338Z,19.80
2018-03-21T09:46:58.125Z,21.50
2018-03-21T09:47:58.030Z,20.40
2018-03-21T09:48:57.208Z,18.20
2018-03-21T09:50:56.306Z,23.60
2018-03-21T09:51:56.338Z,20.50
2018-03-21T09:52:56.331Z,22.90
2018-03-21T09:53:56.320Z,21.20
2018-03-21T09:54:56.319Z,20.90
2018-03-21T09:55:56.405Z,19.10
2018-03-21T09:56:56.381Z,14.80
2018-03-21T09:57:56.503Z,16.80
2018-03-21T09:58:56.322Z,20.40
2018-03-21T09:59:56.343Z,19.80
2018-03-21T10:00:56.328Z,16.40
2018-03-21T10:01:56.332Z,16.10
2018-03-21T10:02:57.204Z,21.00
2018-03-21T10:03:56.366Z,22.60
2018-03-21T10:04:56.373Z,20.10
2018-03-21T10:05:56.359Z,16.80
2018-03-21T10:06:56.327Z,15.80
2018-03-21T10:07:56.348Z,15.30
2018-03-21T10:08:57.295Z,16.90
2018-03-21T10:09:56.348Z,14.50
2018-03-21T10:10:56.343Z,15.10
2018-03-21T10:11:56.341Z,16.60
2018-03-21T10:12:56.339Z,15.00
2018-03-21T10:13:56.359Z,15.30
2018-03-21T10:14:56.352Z,14.50
2018-03-21T10:15:56.411Z,14.20
2018-03-21T10:16:56.991Z,18.20
2018-03-21T10:17:56.366Z,17.30
2018-03-21T10:18:56.358Z,19.30
2018-03-21T10:19:56.362Z,17.20
2018-03-21T10:20:56.360Z,15.10
2018-03-21T10:21:56.382Z,21.90
2018-03-21T10:22:56.413Z,15.80
2018-03-21T10:23:57.203Z,17.10
2018-03-21T10:24:56.368Z,14.90
2018-03-21T10:25:56.438Z,17.00
2018-03-21T10:26:56.428Z,17.00
2018-03-21T10:27:56.427Z,17.30
2018-03-21T10:28:56.483Z,12.90
2018-03-21T10:29:56.366Z,15.90
2018-03-21T10:30:56.359Z,20.20
2018-03-21T10:31:56.382Z,21.80
2018-03-21T10:32:56.376Z,23.30
2018-03-21T10:33:56.375Z,15.60
2018-03-21T10:34:56.390Z,20.90
2018-03-21T10:35:56.395Z,17.70
2018-03-21T10:36:56.446Z,15.20
2018-03-21T10:37:56.401Z,16.90
2018-03-21T10:38:56.436Z,17.00
2018-03-21T10:39:56.388Z,19.10
2018-03-21T10:40:56.397Z,15.30
2018-03-21T10:41:56.414Z,15.10
2018-03-21T10:42:56.393Z,16.20
2018-03-21T10:43:56.386Z,15.80
2018-03-21T10:44:56.518Z,15.30
2018-03-21T10:45:56.403Z,12.20
2018-03-21T10:46:58.225Z,19.90
2018-03-21T10:47:58.207Z,19.10
2018-03-21T10:48:56.448Z,18.00
2018-03-21T10:50:00.210Z,16.00
2018-03-21T10:50:57.319Z,15.40
2018-03-21T10:51:56.727Z,15.30
2018-03-21T10:52:57.301Z,15.00
2018-03-21T10:53:56.427Z,16.40
2018-03-21T10:54:56.447Z,21.90
2018-03-21T10:55:56.548Z,16.70
2018-03-21T10:56:56.420Z,16.90
2018-03-21T10:57:56.409Z,16.40
2018-03-21T10:58:56.413Z,14.70
2018-03-21T10:59:56.416Z,14.60
2018-03-21T11:00:56.428Z,14.30
2018-03-21T11:01:56.445Z,22.70
2018-03-21T11:02:56.811Z,21.30
2018-03-21T11:03:56.592Z,21.60
2018-03-21T11:04:56.426Z,18.90
2018-03-21T11:05:57.752Z,17.50
2018-03-21T11:06:57.214Z,19.70
2018-03-21T11:07:56.510Z,16.80
2018-03-21T11:08:56.442Z,16.50
2018-03-21T11:09:56.448Z,15.90
2018-03-21T11:10:56.446Z,18.00
2018-03-21T11:11:56.482Z,20.10
2018-03-21T11:12:56.439Z,19.30
2018-03-21T11:13:56.438Z,17.60
2018-03-21T11:14:56.447Z,21.30
2018-03-21T11:15:56.435Z,18.10
2018-03-21T11:16:57.213Z,15.50
2018-03-21T11:17:57.398Z,16.10
2018-03-21T11:18:56.424Z,17.20
2018-03-21T11:19:56.449Z,17.40
2018-03-21T11:20:56.445Z,16.50
2018-03-21T11:22:00.539Z,18.80
2018-03-21T11:23:56.443Z,17.40
2018-03-21T11:24:56.456Z,19.10
2018-03-21T11:25:56.439Z,18.80
2018-03-21T11:26:56.439Z,18.50
2018-03-21T11:27:56.497Z,20.60
2018-03-21T11:28:56.462Z,22.70
2018-03-21T11:29:56.466Z,21.00
2018-03-21T11:30:56.473Z,17.90
2018-03-21T11:31:56.458Z,20.60
2018-03-21T11:32:56.485Z,19.40
2018-03-21T11:33:56.452Z,16.70
2018-03-21T11:34:56.513Z,19.00
2018-03-21T11:35:56.467Z,14.20
2018-03-21T11:36:56.476Z,17.60
2018-03-21T11:37:56.477Z,17.80
2018-03-21T11:38:56.481Z,21.20
2018-03-21T11:39:56.467Z,18.30
2018-03-21T11:40:56.470Z,18.20
2018-03-21T11:41:56.471Z,19.50
2018-03-21T11:42:56.477Z,22.40
2018-03-21T11:43:56.493Z,18.20
2018-03-21T11:44:56.490Z,16.50
2018-03-21T11:45:56.481Z,19.50
2018-03-21T11:46:56.476Z,20.50
2018-03-21T11:47:56.727Z,19.00
2018-03-21T11:48:56.495Z,18.70
2018-03-21T11:49:56.491Z,16.30
2018-03-21T11:50:56.495Z,16.30
2018-03-21T11:51:56.506Z,19.40
2018-03-21T11:52:56.539Z,15.80
2018-03-21T11:53:56.530Z,18.00
2018-03-21T11:54:56.506Z,17.40
2018-03-21T11:55:56.504Z,13.20
2018-03-21T11:56:56.510Z,13.90
2018-03-21T11:57:56.523Z,13.20
2018-03-21T11:58:57.305Z,19.30
2018-03-21T11:59:56.553Z,20.00
2018-03-21T12:00:56.702Z,21.50
2018-03-21T12:01:56.544Z,21.20
2018-03-21T12:02:57.222Z,22.30
2018-03-21T12:03:57.118Z,23.30
2018-03-21T12:04:56.533Z,17.00
2018-03-21T12:05:56.569Z,17.00
2018-03-21T12:06:56.597Z,16.50
2018-03-21T12:07:56.643Z,15.80
2018-03-21T12:08:56.541Z,14.60
2018-03-21T12:09:56.531Z,19.60
2018-03-21T12:10:56.546Z,17.30
2018-03-21T12:11:56.547Z,17.50
2018-03-21T12:12:56.576Z,19.80
2018-03-21T12:13:56.552Z,18.30
2018-03-21T12:14:56.625Z,17.70
2018-03-21T12:15:56.539Z,16.40
2018-03-21T12:16:56.547Z,17.30
2018-03-21T12:17:56.612Z,17.70
2018-03-21T12:18:56.614Z,16.80
2018-03-21T12:19:56.575Z,19.40
2018-03-21T12:20:56.556Z,15.80
2018-03-21T12:21:56.639Z,23.10
2018-03-21T12:22:56.567Z,19.00
2018-03-21T12:23:56.584Z,19.00
2018-03-21T12:24:56.602Z,15.90
2018-03-21T12:25:56.708Z,18.60
2018-03-21T12:26:56.563Z,16.10
2018-03-21T12:27:56.568Z,21.00
2018-03-21T12:28:56.586Z,18.00
2018-03-21T12:29:56.584Z,15.30
2018-03-21T12:30:56.708Z,15.70
2018-03-21T12:31:58.011Z,18.20
2018-03-21T12:32:57.595Z,18.00
2018-03-21T12:33:56.790Z,14.60
2018-03-21T12:34:56.658Z,13.40
2018-03-21T12:35:56.574Z,15.00
2018-03-21T12:36:56.788Z,12.60
2018-03-21T12:38:03.661Z,15.70
2018-03-21T12:38:57.910Z,13.70
2018-03-21T12:39:57.039Z,14.90
2018-03-21T12:40:56.735Z,15.80
2018-03-21T12:41:57.164Z,20.90
2018-03-21T12:42:56.909Z,19.20
2018-03-21T12:43:56.925Z,15.00
2018-03-21T12:44:56.964Z,15.40
2018-03-21T12:45:57.937Z,13.70
2018-03-21T12:47:08.146Z,17.90
2018-03-21T12:47:56.593Z,13.60
2018-03-21T12:48:56.699Z,16.40
2018-03-21T12:49:56.652Z,15.80
2018-03-21T12:50:56.630Z,21.20
2018-03-21T12:51:56.622Z,17.00
2018-03-21T12:52:56.579Z,14.30
2018-03-21T12:53:56.617Z,15.90
2018-03-21T12:54:56.639Z,16.50
2018-03-21T12:55:56.669Z,17.20
2018-03-21T12:56:56.601Z,16.10
2018-03-21T12:57:56.623Z,16.60
2018-03-21T12:58:57.244Z,17.70
2018-03-21T12:59:59.096Z,15.70